Time;durP1;ratioP1;P1;durP2;ratioP2;P2;SDS_P1;SDS_P2;PMS_P1;PMS_P2;Temp;Humidity;BMP_temperature;BMP_pressure;BME280_temperature;BME280_humidity;BME280_pressure;Samples;Min_cycle;Max_cycle;Signal;HPM_P1;HPM_P2
2023/10/26 00:00:35;;;;;;;6.70;0.50;;;13.10;1.00;;;;;;5015026;28;20393;-68
2023/10/26 00:03:01;;;;;;;3.90;0.40;;;13.10;1.00;;;;;;5025179;28;20414;-68
2023/10/26 00:05:26;;;;;;;4.00;0.50;;;13.10;1.00;;;;;;5027510;28;20395;-68
2023/10/26 00:07:52;;;;;;;4.00;0.40;;;13.20;1.00;;;;;;5026698;28;20793;-68
2023/10/26 00:10:18;;;;;;;4.97;0.43;;;13.30;1.00;;;;;;5013331;28;20444;-68
2023/10/26 00:12:44;;;;;;;3.80;0.30;;;13.30;1.00;;;;;;5013828;28;20488;-68
2023/10/26 00:15:10;;;;;;;3.80;0.30;;;13.30;1.00;;;;;;5024158;28;20403;-68
2023/10/26 00:17:39;;;;;;;3.80;0.32;;;13.20;1.00;;;;;;5018494;28;20401;-68
2023/10/26 00:20:06;;;;;;;4.00;0.40;;;13.10;1.00;;;;;;5013155;28;20400;-68
2023/10/26 00:22:32;;;;;;;4.43;0.60;;;13.10;1.00;;;;;;5013846;28;20428;-68
2023/10/26 00:24:57;;;;;;;3.90;0.50;;;13.00;1.00;;;;;;5029451;28;20458;-68
2023/10/26 00:27:23;;;;;;;3.80;0.30;;;12.90;1.00;;;;;;5014193;28;20468;-68
2023/10/26 00:29:48;;;;;;;3.90;0.40;;;12.90;1.00;;;;;;5013299;28;20407;-68
2023/10/26 00:32:14;;;;;;;3.90;0.33;;;12.70;1.00;;;;;;5018299;28;20402;-68
2023/10/26 00:34:40;;;;;;;6.45;0.80;;;12.70;1.00;;;;;;5032655;28;20481;-68
2023/10/26 00:37:08;;;;;;;3.80;0.30;;;12.60;1.00;;;;;;5032689;28;20399;-68
2023/10/26 00:39:34;;;;;;;4.10;0.40;;;12.60;1.00;;;;;;5018905;28;20404;-67
2023/10/26 00:42:00;;;;;;;3.80;0.40;;;12.60;1.00;;;;;;5029665;28;20399;-68
2023/10/26 00:44:25;;;;;;;4.07;0.60;;;12.50;1.00;;;;;;5031684;28;20407;-68
2023/10/26 00:46:53;;;;;;;3.97;0.52;;;12.50;1.00;;;;;;5036884;28;20423;-68
2023/10/26 00:49:19;;;;;;;3.80;0.38;;;12.50;1.00;;;;;;5031206;28;20807;-68
2023/10/26 00:51:59;;;;;;;4.00;0.50;;;12.50;1.00;;;;;;5021583;28;20412;-68
2023/10/26 00:54:26;;;;;;;4.10;0.50;;;12.40;1.00;;;;;;5027727;28;20474;-69
2023/10/26 00:56:52;;;;;;;4.28;0.50;;;12.40;1.00;;;;;;5031016;28;20406;-69
2023/10/26 00:59:18;;;;;;;4.10;0.60;;;12.40;1.00;;;;;;5032334;28;20387;-69
2023/10/26 01:01:50;;;;;;;4.37;0.50;;;12.40;1.00;;;;;;5032258;28;20968;-68
2023/10/26 01:04:16;;;;;;;4.60;0.90;;;12.30;1.00;;;;;;5032556;28;20399;-69
2023/10/26 01:06:43;;;;;;;3.90;0.60;;;12.30;1.00;;;;;;5026877;28;20481;-69
2023/10/26 01:09:09;;;;;;;4.20;0.70;;;12.20;1.00;;;;;;5031087;28;20486;-68
2023/10/26 01:11:37;;;;;;;4.60;0.80;;;12.10;1.00;;;;;;5032413;28;20455;-68
2023/10/26 01:14:03;;;;;;;3.80;0.50;;;12.10;1.00;;;;;;5033595;28;20383;-68
2023/10/26 01:16:29;;;;;;;3.90;0.50;;;12.00;1.00;;;;;;5028106;28;20407;-69
2023/10/26 01:18:58;;;;;;;5.70;1.13;;;12.10;1.00;;;;;;5021800;28;20476;-68
2023/10/26 01:21:31;;;;;;;3.60;0.40;;;12.10;1.00;;;;;;5025823;28;20418;-68
2023/10/26 01:23:57;;;;;;;3.83;0.60;;;12.20;1.00;;;;;;5013079;28;20423;-68
2023/10/26 01:26:23;;;;;;;4.80;0.73;;;12.30;1.00;;;;;;5016048;28;20428;-68
2023/10/26 01:28:49;;;;;;;3.75;0.40;;;12.30;1.00;;;;;;5028219;28;20391;-69
2023/10/26 01:31:17;;;;;;;3.90;0.50;;;12.40;1.00;;;;;;5031230;28;20428;-69
2023/10/26 01:33:44;;;;;;;3.90;0.65;;;12.40;1.00;;;;;;5031250;28;20395;-69
2023/10/26 01:36:10;;;;;;;3.70;0.47;;;12.40;1.00;;;;;;5020603;28;20504;-69
2023/10/26 01:38:36;;;;;;;4.00;0.60;;;12.40;1.00;;;;;;5012143;28;20797;-68
2023/10/26 01:41:04;;;;;;;3.80;0.40;;;12.40;1.00;;;;;;5011864;28;20496;-69
2023/10/26 01:43:30;;;;;;;3.70;0.40;;;12.50;1.00;;;;;;5012468;28;20417;-69
2023/10/26 01:45:57;;;;;;;4.70;0.80;;;12.50;1.00;;;;;;5011745;28;20929;-69
2023/10/26 01:48:23;;;;;;;4.10;0.80;;;12.50;1.00;;;;;;5014959;28;20491;-69
2023/10/26 01:50:49;;;;;;;4.40;0.70;;;12.50;1.00;;;;;;5031907;28;20414;-69
2023/10/26 01:53:14;;;;;;;4.10;0.60;;;12.40;1.00;;;;;;5031067;28;20437;-69
2023/10/26 01:55:42;;;;;;;3.83;0.60;;;12.40;1.00;;;;;;5023713;28;20969;-69
2023/10/26 01:58:07;;;;;;;4.00;0.60;;;12.30;1.00;;;;;;5021187;28;20400;-69
2023/10/26 02:00:33;;;;;;;5.27;0.90;;;12.30;1.00;;;;;;5025258;28;20585;-69
2023/10/26 02:02:58;;;;;;;3.80;0.43;;;12.10;1.00;;;;;;5014543;28;20865;-68
2023/10/26 02:05:24;;;;;;;4.00;0.40;;;12.00;1.00;;;;;;5015571;28;20403;-68
2023/10/26 02:07:50;;;;;;;3.80;0.50;;;12.00;1.00;;;;;;5030086;28;20415;-68
2023/10/26 02:10:17;;;;;;;4.60;0.40;;;11.80;1.00;;;;;;5030779;28;20437;-68
2023/10/26 02:12:43;;;;;;;4.70;0.50;;;11.80;1.00;;;;;;5026896;28;20719;-68
2023/10/26 02:15:09;;;;;;;6.10;0.53;;;11.80;1.00;;;;;;5011652;28;20496;-68
2023/10/26 02:17:35;;;;;;;4.30;0.60;;;11.80;1.00;;;;;;5015890;28;20930;-68
2023/10/26 02:20:01;;;;;;;4.20;0.50;;;11.80;1.00;;;;;;5030132;28;20505;-68
2023/10/26 02:22:26;;;;;;;4.80;0.50;;;11.80;1.00;;;;;;5010224;28;20994;-68
2023/10/26 02:24:52;;;;;;;6.90;0.60;;;11.90;1.00;;;;;;5020170;28;20406;-68
2023/10/26 02:27:17;;;;;;;4.20;0.53;;;12.00;1.00;;;;;;5030630;28;20444;-68
2023/10/26 02:29:43;;;;;;;4.45;0.65;;;12.10;1.00;;;;;;5014342;28;20737;-69
2023/10/26 02:32:08;;;;;;;3.90;0.50;;;12.10;1.00;;;;;;5019325;28;20462;-69
2023/10/26 02:34:34;;;;;;;4.00;0.57;;;12.20;1.00;;;;;;5026102;28;20425;-68
2023/10/26 02:37:00;;;;;;;3.87;0.67;;;12.10;1.00;;;;;;5023280;28;20433;-68
2023/10/26 02:39:27;;;;;;;4.00;0.40;;;12.00;1.00;;;;;;5027075;28;20459;-69
2023/10/26 02:41:54;;;;;;;3.80;0.50;;;11.90;1.00;;;;;;5010580;28;20397;-69
2023/10/26 02:44:19;;;;;;;4.18;0.55;;;11.90;1.00;;;;;;5023904;28;20564;-68
2023/10/26 02:46:45;;;;;;;4.00;0.50;;;11.90;1.00;;;;;;5025167;28;20432;-68
2023/10/26 02:49:10;;;;;;;4.10;0.50;;;11.90;1.00;;;;;;5022270;28;20403;-68
2023/10/26 02:51:36;;;;;;;3.77;0.40;;;11.90;1.00;;;;;;5011485;28;20462;-68
2023/10/26 02:54:01;;;;;;;3.87;0.47;;;11.90;1.00;;;;;;5011042;28;20492;-68
2023/10/26 02:56:27;;;;;;;4.70;0.50;;;11.90;1.00;;;;;;5010520;28;20807;-68
2023/10/26 02:58:53;;;;;;;4.22;0.55;;;11.80;1.00;;;;;;5010100;28;20392;-68
2023/10/26 03:01:21;;;;;;;4.00;0.70;;;11.70;1.00;;;;;;5028931;28;20498;-68
2023/10/26 03:03:46;;;;;;;4.60;0.60;;;11.80;1.00;;;;;;5028669;28;20411;-68
2023/10/26 03:06:11;;;;;;;4.30;0.70;;;11.80;1.00;;;;;;5029116;28;20973;-68
2023/10/26 03:08:37;;;;;;;4.10;0.50;;;11.90;1.00;;;;;;5028330;28;20410;-68
2023/10/26 03:11:03;;;;;;;3.80;0.40;;;12.00;1.00;;;;;;5014054;28;20470;-68
2023/10/26 03:13:28;;;;;;;3.70;0.30;;;12.00;1.00;;;;;;5009997;28;20913;-68
2023/10/26 03:15:54;;;;;;;3.90;0.50;;;12.00;1.00;;;;;;5008998;28;20404;-68
2023/10/26 03:18:19;;;;;;;3.90;0.40;;;12.10;1.00;;;;;;5021178;28;20395;-68
2023/10/26 03:20:45;;;;;;;3.80;0.40;;;12.00;1.00;;;;;;5026164;28;20405;-68
2023/10/26 03:23:11;;;;;;;4.90;0.40;;;12.00;1.00;;;;;;5009101;28;20459;-68
2023/10/26 03:25:37;;;;;;;3.70;0.30;;;12.00;1.00;;;;;;5021348;28;20730;-68
2023/10/26 03:28:05;;;;;;;5.60;0.50;;;12.00;1.00;;;;;;5038876;28;20418;-68
2023/10/26 03:30:30;;;;;;;3.80;0.30;;;12.00;1.00;;;;;;5019091;28;20399;-68
2023/10/26 03:32:56;;;;;;;3.90;0.40;;;12.00;1.00;;;;;;5009882;28;20476;-68
2023/10/26 03:35:21;;;;;;;3.80;0.40;;;12.00;1.00;;;;;;5011866;28;20393;-68
2023/10/26 03:37:47;;;;;;;5.90;0.80;;;12.00;1.00;;;;;;5021795;28;20412;-68
2023/10/26 03:40:14;;;;;;;4.40;0.40;;;12.00;1.00;;;;;;5009877;28;20412;-68
2023/10/26 03:42:40;;;;;;;3.80;0.30;;;12.00;1.00;;;;;;5009571;28;20481;-68
2023/10/26 03:45:06;;;;;;;5.20;0.50;;;12.00;1.00;;;;;;5009707;28;20499;-68
2023/10/26 03:47:31;;;;;;;4.50;0.50;;;12.00;1.00;;;;;;5009704;28;20424;-68
2023/10/26 03:49:57;;;;;;;4.00;0.50;;;12.00;1.00;;;;;;5015217;28;20396;-68
2023/10/26 03:52:22;;;;;;;4.20;0.60;;;11.90;1.00;;;;;;5011338;28;20759;-68
2023/10/26 03:54:48;;;;;;;4.80;0.50;;;11.90;1.00;;;;;;5021934;28;20951;-68
2023/10/26 03:57:15;;;;;;;4.00;0.50;;;11.90;1.00;;;;;;5010839;28;20415;-69
2023/10/26 03:59:40;;;;;;;4.30;0.47;;;11.90;1.00;;;;;;5017734;28;20416;-67
2023/10/26 04:02:06;;;;;;;5.93;0.70;;;11.80;1.00;;;;;;5019280;28;20425;-68
2023/10/26 04:04:32;;;;;;;4.40;0.50;;;11.80;1.00;;;;;;5018388;28;20460;-68
2023/10/26 04:06:57;;;;;;;4.20;0.60;;;11.80;1.00;;;;;;5011790;28;20429;-68
2023/10/26 04:09:23;;;;;;;3.80;0.40;;;11.70;1.00;;;;;;5017925;28;20407;-68
2023/10/26 04:11:48;;;;;;;3.70;0.30;;;11.70;1.00;;;;;;5010795;28;20466;-68
2023/10/26 04:14:14;;;;;;;3.70;0.40;;;11.50;1.00;;;;;;5010126;28;20413;-68
2023/10/26 04:16:39;;;;;;;4.20;0.52;;;11.50;1.00;;;;;;5010839;28;20508;-68
2023/10/26 04:19:06;;;;;;;3.70;0.30;;;11.50;1.00;;;;;;5019294;28;20441;-68
2023/10/26 04:21:33;;;;;;;3.90;0.40;;;11.50;1.00;;;;;;5026743;28;20502;-68
2023/10/26 04:23:59;;;;;;;3.90;0.40;;;11.40;1.00;;;;;;5013252;28;20860;-68
2023/10/26 04:26:25;;;;;;;4.25;0.50;;;11.50;1.00;;;;;;5010250;28;20425;-68
2023/10/26 04:28:51;;;;;;;5.20;0.70;;;11.40;1.00;;;;;;5026459;28;20415;-67
2023/10/26 04:31:17;;;;;;;5.30;0.57;;;11.50;1.00;;;;;;5020922;28;20494;-69
2023/10/26 04:33:43;;;;;;;3.90;0.50;;;11.50;1.00;;;;;;5023384;28;20457;-68
2023/10/26 04:36:11;;;;;;;4.13;0.53;;;11.50;1.00;;;;;;5017300;28;20459;-68
2023/10/26 04:38:36;;;;;;;4.30;0.80;;;11.40;1.00;;;;;;5025009;28;20414;-68
2023/10/26 04:41:02;;;;;;;3.95;0.43;;;11.40;1.00;;;;;;5022538;28;20387;-68
2023/10/26 04:43:27;;;;;;;3.90;0.43;;;11.40;1.00;;;;;;5026625;28;20422;-68
2023/10/26 04:45:53;;;;;;;4.50;0.50;;;11.50;1.00;;;;;;5028921;28;20414;-70
2023/10/26 04:48:18;;;;;;;3.97;0.60;;;11.50;1.00;;;;;;5029035;28;20422;-68
2023/10/26 04:50:44;;;;;;;3.80;0.40;;;11.40;1.00;;;;;;5029045;28;20856;-68
2023/10/26 04:53:09;;;;;;;4.23;0.60;;;11.50;1.00;;;;;;5022013;28;20427;-69
2023/10/26 04:55:35;;;;;;;3.97;0.57;;;11.40;1.00;;;;;;5007966;28;20431;-68
2023/10/26 04:58:02;;;;;;;4.00;0.43;;;11.40;1.00;;;;;;5008557;28;20389;-68
2023/10/26 05:00:27;;;;;;;5.30;0.60;;;11.40;1.00;;;;;;5010607;28;20778;-68
2023/10/26 05:02:53;;;;;;;3.80;0.40;;;11.40;1.00;;;;;;5026972;28;20403;-68
2023/10/26 05:05:19;;;;;;;3.85;0.55;;;11.30;1.00;;;;;;5030345;28;20379;-68
2023/10/26 05:07:45;;;;;;;4.07;0.40;;;11.40;1.00;;;;;;5030489;28;20422;-69
2023/10/26 05:10:11;;;;;;;4.60;0.60;;;11.40;1.00;;;;;;5030514;28;20400;-68
2023/10/26 05:12:36;;;;;;;4.80;0.43;;;11.40;1.00;;;;;;5012221;28;20416;-68
2023/10/26 05:15:02;;;;;;;4.00;0.60;;;11.40;1.00;;;;;;5016698;28;20404;-68
2023/10/26 05:17:28;;;;;;;4.10;0.60;;;11.40;1.00;;;;;;5012292;28;20447;-68
2023/10/26 05:19:53;;;;;;;4.93;0.80;;;11.40;1.00;;;;;;5012326;28;20425;-68
2023/10/26 05:22:19;;;;;;;4.20;0.60;;;11.30;1.00;;;;;;5012001;28;20945;-68
2023/10/26 05:24:46;;;;;;;4.80;0.50;;;11.30;1.00;;;;;;5011833;28;20385;-69
2023/10/26 05:27:12;;;;;;;5.50;0.70;;;11.20;1.00;;;;;;5031140;28;20426;-69
2023/10/26 05:29:38;;;;;;;5.73;0.80;;;11.30;1.00;;;;;;5032068;28;20402;-68
2023/10/26 05:32:04;;;;;;;7.53;0.60;;;11.30;1.00;;;;;;5029968;28;20383;-69
2023/10/26 05:34:30;;;;;;;3.80;0.40;;;11.20;1.00;;;;;;5014451;28;20421;-69
2023/10/26 05:36:56;;;;;;;4.60;0.50;;;11.20;1.00;;;;;;5029495;28;20398;-68
2023/10/26 05:39:22;;;;;;;5.72;0.52;;;11.20;1.00;;;;;;5020635;28;20413;-69
2023/10/26 05:41:47;;;;;;;3.80;0.40;;;11.30;1.00;;;;;;5030048;28;20426;-69
2023/10/26 05:44:13;;;;;;;3.80;0.40;;;11.30;1.00;;;;;;5031760;28;20391;-69
2023/10/26 05:46:38;;;;;;;8.27;0.73;;;11.20;1.00;;;;;;5031738;28;20419;-69
2023/10/26 05:49:05;;;;;;;4.10;0.40;;;11.20;1.00;;;;;;5032086;28;20399;-69
2023/10/26 05:51:30;;;;;;;4.57;0.70;;;11.20;1.00;;;;;;5032415;28;20383;-69
2023/10/26 05:53:56;;;;;;;5.40;0.50;;;11.20;1.00;;;;;;5031678;28;20477;-68
2023/10/26 05:56:22;;;;;;;4.10;0.65;;;11.30;1.00;;;;;;5031699;28;20391;-69
2023/10/26 05:58:50;;;;;;;4.80;0.70;;;11.30;1.00;;;;;;5031645;28;20451;-69
2023/10/26 06:01:17;;;;;;;4.70;0.73;;;11.40;1.00;;;;;;5031772;28;20397;-69
2023/10/26 06:03:43;;;;;;;10.87;2.20;;;11.40;1.00;;;;;;5030131;28;20474;-69
2023/10/26 06:06:09;;;;;;;8.32;1.27;;;11.50;1.00;;;;;;5026077;28;20423;-69
2023/10/26 06:08:35;;;;;;;4.50;0.70;;;11.60;1.00;;;;;;5020804;28;20448;-69
2023/10/26 06:11:01;;;;;;;3.80;0.30;;;11.50;1.00;;;;;;5017770;28;20471;-68
2023/10/26 06:13:26;;;;;;;4.40;0.60;;;11.50;1.00;;;;;;5011485;28;20497;-69
2023/10/26 06:15:52;;;;;;;4.30;0.70;;;11.40;1.00;;;;;;5011852;28;20408;-69
2023/10/26 06:18:17;;;;;;;4.00;0.60;;;11.40;1.00;;;;;;5011204;28;20408;-69
2023/10/26 06:20:43;;;;;;;3.80;0.40;;;11.50;1.00;;;;;;5011486;28;20555;-69
2023/10/26 06:23:09;;;;;;;5.40;0.70;;;11.60;1.00;;;;;;5014395;28;20388;-69
2023/10/26 06:25:35;;;;;;;4.20;0.80;;;11.60;1.00;;;;;;5011349;28;20786;-69
2023/10/26 06:28:01;;;;;;;4.23;0.70;;;11.60;1.00;;;;;;5012079;28;20393;-69
2023/10/26 06:30:26;;;;;;;4.60;0.80;;;11.70;1.00;;;;;;5011552;28;20387;-69
2023/10/26 06:32:52;;;;;;;4.30;0.90;;;11.70;1.00;;;;;;5011511;28;20413;-69
2023/10/26 06:35:18;;;;;;;3.90;0.50;;;11.70;1.00;;;;;;5011260;28;20389;-69
2023/10/26 06:37:43;;;;;;;7.90;0.80;;;11.80;1.00;;;;;;5010973;28;20431;-69
2023/10/26 06:40:09;;;;;;;8.37;0.90;;;11.80;1.00;;;;;;5010645;28;20404;-68
2023/10/26 06:42:35;;;;;;;4.60;0.80;;;11.90;1.00;;;;;;5011012;28;20436;-68
2023/10/26 06:45:02;;;;;;;4.20;0.60;;;11.90;1.00;;;;;;5011524;28;20381;-68
2023/10/26 06:47:28;;;;;;;6.00;1.20;;;12.00;1.00;;;;;;5011069;28;20417;-69
2023/10/26 06:49:54;;;;;;;7.90;1.00;;;12.10;1.00;;;;;;5011096;28;21034;-69
2023/10/26 06:52:20;;;;;;;4.32;1.00;;;12.10;1.00;;;;;;5010610;28;20392;-69
2023/10/26 06:54:49;;;;;;;5.70;0.90;;;12.20;1.00;;;;;;5011004;28;20454;-69
2023/10/26 06:57:15;;;;;;;5.13;0.95;;;12.10;1.00;;;;;;5009299;28;20411;-69
2023/10/26 06:59:44;;;;;;;6.15;1.60;;;12.20;1.00;;;;;;5011028;28;20392;-69
2023/10/26 07:02:12;;;;;;;4.43;0.90;;;12.20;1.00;;;;;;5010744;28;20895;-69
2023/10/26 07:04:38;;;;;;;4.97;0.82;;;12.20;1.00;;;;;;5010733;28;20479;-69
2023/10/26 07:07:04;;;;;;;5.60;1.15;;;12.20;1.00;;;;;;5025980;28;20515;-69
2023/10/26 07:09:30;;;;;;;4.53;0.90;;;12.30;1.00;;;;;;5011143;28;20436;-69
2023/10/26 07:11:55;;;;;;;7.30;1.30;;;12.40;1.00;;;;;;5010375;28;20396;-69
2023/10/26 07:14:22;;;;;;;8.00;1.30;;;12.40;1.00;;;;;;5010739;28;20389;-69
2023/10/26 07:16:48;;;;;;;8.02;0.95;;;12.50;1.00;;;;;;5010123;28;20941;-69
2023/10/26 07:19:13;;;;;;;4.50;0.90;;;12.50;1.00;;;;;;5009914;28;20923;-69
2023/10/26 07:21:39;;;;;;;4.23;0.70;;;12.60;1.00;;;;;;5011046;28;20401;-69
2023/10/26 07:24:04;;;;;;;5.00;0.70;;;12.60;1.00;;;;;;5029462;28;20387;-69
2023/10/26 07:26:31;;;;;;;4.70;0.50;;;12.60;1.00;;;;;;5019835;28;20425;-69
2023/10/26 07:28:57;;;;;;;5.00;0.60;;;12.60;1.00;;;;;;5009335;28;20405;-69
2023/10/26 07:31:23;;;;;;;4.15;0.60;;;12.60;1.00;;;;;;5009661;28;20487;-69
2023/10/26 07:33:50;;;;;;;6.15;1.92;;;12.60;1.00;;;;;;5008777;28;20401;-69
2023/10/26 07:36:16;;;;;;;5.60;1.57;;;12.80;1.00;;;;;;5008917;28;20487;-69
2023/10/26 07:38:41;;;;;;;4.05;0.73;;;12.80;1.00;;;;;;5010112;28;20428;-69
2023/10/26 07:41:08;;;;;;;5.10;1.10;;;12.90;1.00;;;;;;5010367;28;20403;-69
2023/10/26 07:43:36;;;;;;;5.20;1.10;;;13.10;1.00;;;;;;5010195;28;20432;-68
2023/10/26 07:46:03;;;;;;;5.47;1.00;;;13.10;1.00;;;;;;5010165;28;20495;-69
2023/10/26 07:48:28;;;;;;;4.57;0.93;;;13.10;1.00;;;;;;5010501;28;20475;-69
2023/10/26 07:50:55;;;;;;;4.90;1.00;;;13.30;1.00;;;;;;5010601;28;20558;-69
2023/10/26 07:53:21;;;;;;;5.20;1.00;;;13.30;1.00;;;;;;5008682;28;20396;-69
2023/10/26 07:55:47;;;;;;;4.70;1.08;;;13.20;1.00;;;;;;5015583;28;20525;-69
2023/10/26 07:58:12;;;;;;;4.77;1.20;;;13.20;1.00;;;;;;5031112;28;20414;-69
2023/10/26 08:00:38;;;;;;;5.80;0.90;;;13.20;1.00;;;;;;5029670;28;20462;-69
2023/10/26 08:03:04;;;;;;;4.30;0.90;;;13.10;1.00;;;;;;5030340;28;20472;-70
2023/10/26 08:05:30;;;;;;;6.00;1.10;;;13.00;1.00;;;;;;5030161;28;20387;-70
2023/10/26 08:07:55;;;;;;;5.22;1.00;;;13.00;1.00;;;;;;5029505;28;20411;-70
2023/10/26 08:10:21;;;;;;;8.10;1.10;;;13.20;1.00;;;;;;5028373;28;20552;-70
2023/10/26 08:12:51;;;;;;;8.23;1.60;;;13.40;1.00;;;;;;5028549;28;20418;-70
2023/10/26 08:15:17;;;;;;;5.00;1.20;;;13.50;1.00;;;;;;5029271;28;20394;-70
2023/10/26 08:17:42;;;;;;;6.43;1.40;;;13.60;1.00;;;;;;5029406;28;20386;-69
2023/10/26 08:20:08;;;;;;;4.53;0.90;;;13.60;1.00;;;;;;5028696;28;20387;-69
2023/10/26 08:22:34;;;;;;;4.80;1.00;;;13.70;1.00;;;;;;5028704;28;20757;-69
2023/10/26 08:25:00;;;;;;;4.30;0.93;;;13.80;1.00;;;;;;5030445;28;20821;-69
2023/10/26 08:27:26;;;;;;;5.07;1.40;;;13.90;1.00;;;;;;5029444;28;20419;-69
2023/10/26 08:29:51;;;;;;;8.20;1.50;;;13.80;1.00;;;;;;5024301;28;20400;-69
2023/10/26 08:32:17;;;;;;;5.10;1.10;;;13.90;1.00;;;;;;5026091;28;20907;-69
2023/10/26 08:34:44;;;;;;;6.50;1.10;;;14.00;1.00;;;;;;5013667;28;20389;-69
2023/10/26 08:37:10;;;;;;;4.40;1.07;;;14.10;1.00;;;;;;5013626;28;20404;-69
2023/10/26 08:39:36;;;;;;;4.00;0.70;;;14.20;1.00;;;;;;5012118;28;20403;-69
2023/10/26 08:42:02;;;;;;;5.47;1.15;;;14.30;1.00;;;;;;5014144;28;20392;-69
2023/10/26 08:44:32;;;;;;;4.60;1.03;;;14.40;1.00;;;;;;5013261;28;20438;-70
2023/10/26 08:47:03;;;;;;;6.82;1.00;;;14.40;1.00;;;;;;5013124;28;20771;-70
2023/10/26 08:49:32;;;;;;;6.43;1.17;;;14.50;1.00;;;;;;5012681;28;20415;-70
2023/10/26 08:51:59;;;;;;;4.70;1.00;;;14.70;1.00;;;;;;5013658;28;20459;-70
2023/10/26 08:54:28;;;;;;;4.00;0.50;;;14.70;1.00;;;;;;5011003;28;20432;-70
2023/10/26 08:56:54;;;;;;;5.38;1.30;;;14.60;1.00;;;;;;5012687;28;20432;-69
2023/10/26 08:59:19;;;;;;;4.80;0.93;;;14.60;1.00;;;;;;5011829;28;20941;-69
2023/10/26 09:01:48;;;;;;;6.10;0.90;;;14.70;1.00;;;;;;5012009;28;20393;-69
2023/10/26 09:04:15;;;;;;;8.30;0.95;;;14.90;1.00;;;;;;5012255;28;20389;-70
2023/10/26 09:06:49;;;;;;;4.30;0.85;;;14.90;1.00;;;;;;5012011;28;20420;-69
2023/10/26 09:09:15;;;;;;;5.60;1.00;;;14.80;1.00;;;;;;5011750;28;20396;-69
2023/10/26 09:11:42;;;;;;;4.38;0.63;;;14.70;1.00;;;;;;5011615;28;20411;-70
2023/10/26 09:14:16;;;;;;;4.20;0.70;;;14.60;1.00;;;;;;5011748;28;20404;-70
2023/10/26 09:16:46;;;;;;;4.90;0.90;;;14.10;1.00;;;;;;5010376;28;20396;-69
2023/10/26 09:19:18;;;;;;;4.77;0.60;;;14.20;1.00;;;;;;5009891;28;20425;-69
2023/10/26 09:21:56;;;;;;;5.40;0.60;;;14.00;1.00;;;;;;5011209;28;20472;-69
2023/10/26 09:24:31;;;;;;;4.10;0.60;;;14.00;1.00;;;;;;5011414;28;20401;-70
2023/10/26 09:26:59;;;;;;;5.30;0.60;;;13.90;1.00;;;;;;5011855;28;20775;-70
2023/10/26 09:29:47;;;;;;;9.90;1.00;;;14.10;1.00;;;;;;5011450;28;20411;-70
2023/10/26 09:32:12;;;;;;;3.80;0.50;;;14.30;1.00;;;;;;5011258;28;20400;-70
2023/10/26 09:34:43;;;;;;;4.10;0.70;;;14.40;1.00;;;;;;5009899;28;20970;-70
2023/10/26 09:37:09;;;;;;;4.70;0.80;;;14.50;1.00;;;;;;5011516;28;20453;-70
2023/10/26 09:39:38;;;;;;;4.50;0.60;;;14.50;1.00;;;;;;5011214;28;20914;-70
2023/10/26 09:42:11;;;;;;;4.70;0.70;;;14.40;1.00;;;;;;5011919;28;20404;-70
2023/10/26 09:44:37;;;;;;;4.20;0.90;;;14.50;1.00;;;;;;5010442;28;20408;-70
2023/10/26 09:47:03;;;;;;;5.00;0.80;;;14.60;1.00;;;;;;5011936;28;20810;-70
2023/10/26 09:49:30;;;;;;;4.68;1.10;;;14.70;1.00;;;;;;5009893;28;20408;-70
2023/10/26 09:51:55;;;;;;;4.00;0.50;;;14.70;1.00;;;;;;5011557;28;20823;-70
2023/10/26 09:54:27;;;;;;;4.03;0.55;;;14.70;1.00;;;;;;5011234;28;20508;-70
2023/10/26 09:57:22;;;;;;;4.15;0.55;;;14.70;1.00;;;;;;5011501;28;20893;-70
2023/10/26 09:59:51;;;;;;;4.90;0.80;;;14.50;1.00;;;;;;5025327;28;20408;-70
2023/10/26 10:02:18;;;;;;;4.30;0.90;;;14.70;1.00;;;;;;5009721;28;20405;-70
2023/10/26 10:04:45;;;;;;;5.68;1.30;;;14.70;1.00;;;;;;5010732;28;20408;-70
2023/10/26 10:07:16;;;;;;;6.20;1.50;;;14.40;1.00;;;;;;5011198;28;20504;-70
2023/10/26 10:10:00;;;;;;;5.40;1.60;;;14.20;1.00;;;;;;5009317;28;20396;-70
2023/10/26 10:12:26;;;;;;;4.90;1.30;;;14.20;1.00;;;;;;5010949;28;20744;-70
2023/10/26 10:14:51;;;;;;;6.53;1.63;;;14.20;1.00;;;;;;5010640;28;20393;-70
2023/10/26 10:17:18;;;;;;;5.37;1.40;;;14.10;1.00;;;;;;5009660;28;20950;-70
2023/10/26 10:19:48;;;;;;;5.00;1.40;;;14.10;8.50;;;;;;5010908;28;20476;-70
2023/10/26 10:22:38;;;;;;;6.03;1.20;;;14.20;99.90;;;;;;5010489;28;20431;-70
2023/10/26 10:25:05;;;;;;;6.10;1.90;;;14.30;99.90;;;;;;5010869;28;20488;-70
2023/10/26 10:27:31;;;;;;;6.10;1.87;;;14.30;99.90;;;;;;5011543;28;20428;-70
2023/10/26 10:29:57;;;;;;;5.57;1.27;;;14.50;50.40;;;;;;5010228;28;20389;-70
2023/10/26 10:32:42;;;;;;;5.30;1.60;;;14.40;73.20;;;;;;5010367;28;20405;-70
2023/10/26 10:35:08;;;;;;;4.70;1.10;;;14.50;55.20;;;;;;5010168;28;20393;-70
2023/10/26 10:37:33;;;;;;;7.38;1.67;;;14.50;2.10;;;;;;5011014;28;20487;-70
2023/10/26 10:40:15;;;;;;;6.90;1.57;;;14.70;19.90;;;;;;5009246;28;20484;-69
2023/10/26 10:42:50;;;;;;;5.50;1.60;;;14.70;14.40;;;;;;5010059;28;20434;-70
2023/10/26 10:45:16;;;;;;;4.97;1.38;;;14.80;1.00;;;;;;5010069;28;20393;-70
2023/10/26 10:47:43;;;;;;;5.10;1.40;;;14.90;5.90;;;;;;5009982;28;20495;-69
2023/10/26 10:50:20;;;;;;;4.22;0.90;;;15.00;1.00;;;;;;5009894;28;20468;-70
2023/10/26 10:52:47;;;;;;;6.90;1.60;;;15.00;1.00;;;;;;5010154;28;20513;-70
2023/10/26 10:55:19;;;;;;;5.70;1.33;;;15.00;1.00;;;;;;5009310;28;20843;-70
2023/10/26 10:57:53;;;;;;;5.47;1.30;;;15.00;1.00;;;;;;5009812;28;20401;-70
2023/10/26 11:00:19;;;;;;;6.50;1.50;;;15.00;1.00;;;;;;5009835;28;20385;-70
2023/10/26 11:02:56;;;;;;;5.80;1.90;;;14.90;1.00;;;;;;5008933;28;20412;-70
2023/10/26 11:05:36;;;;;;;5.47;1.30;;;14.80;1.00;;;;;;5009518;28;20479;-70
2023/10/26 11:08:03;;;;;;;7.25;2.00;;;14.90;1.00;;;;;;5010272;28;20886;-70
2023/10/26 11:10:29;;;;;;;4.83;1.23;;;15.00;1.00;;;;;;5010126;28;20393;-70
2023/10/26 11:12:54;;;;;;;5.88;1.60;;;14.90;1.00;;;;;;5009416;28;20395;-70
2023/10/26 11:15:21;;;;;;;4.90;1.10;;;14.70;1.00;;;;;;5009903;28;20463;-70
2023/10/26 11:17:47;;;;;;;4.65;0.80;;;14.50;1.00;;;;;;5009705;28;20799;-69
2023/10/26 11:20:38;;;;;;;6.10;1.40;;;14.40;1.00;;;;;;5009503;28;20376;-69
2023/10/26 11:23:05;;;;;;;4.60;0.98;;;14.30;1.00;;;;;;5010270;28;20396;-69
2023/10/26 11:25:30;;;;;;;4.57;1.02;;;14.30;1.00;;;;;;5010144;28;20392;-69
2023/10/26 11:27:56;;;;;;;5.40;1.40;;;14.30;1.00;;;;;;5007956;28;20772;-69
2023/10/26 11:30:21;;;;;;;4.63;1.20;;;14.20;99.90;;;;;;5009517;28;20395;-70
2023/10/26 11:32:47;;;;;;;4.70;1.40;;;14.40;99.90;;;;;;5009311;28;20481;-70
2023/10/26 11:35:14;;;;;;;4.50;1.30;;;14.60;99.90;;;;;;5009503;28;20393;-70
2023/10/26 11:37:42;;;;;;;5.80;1.73;;;14.70;99.90;;;;;;5009580;28;20389;-69
2023/10/26 11:40:09;;;;;;;4.90;1.48;;;14.80;64.40;;;;;;5007461;28;20407;-69
2023/10/26 11:42:51;;;;;;;5.90;1.80;;;15.00;1.00;;;;;;5009098;28;20388;-70
2023/10/26 11:45:23;;;;;;;5.22;1.70;;;15.00;1.00;;;;;;5024308;28;20841;-69
2023/10/26 11:47:51;;;;;;;4.90;1.23;;;15.10;1.00;;;;;;5008905;28;20842;-70
2023/10/26 11:50:27;;;;;;;6.00;1.33;;;15.20;1.00;;;;;;5008930;28;20802;-70
2023/10/26 11:52:58;;;;;;;5.00;1.40;;;15.10;1.00;;;;;;5009152;28;20924;-69
2023/10/26 11:55:25;;;;;;;5.32;1.83;;;15.10;1.00;;;;;;5009077;28;20914;-69
2023/10/26 11:57:51;;;;;;;4.75;1.48;;;15.20;1.00;;;;;;5007972;28;20400;-69
2023/10/26 12:00:18;;;;;;;4.77;1.30;;;15.40;1.00;;;;;;5008766;28;20404;-69
2023/10/26 12:02:44;;;;;;;5.00;1.45;;;15.40;1.00;;;;;;5007612;28;20788;-70
2023/10/26 12:05:18;;;;;;;6.47;1.50;;;15.60;1.00;;;;;;5009058;28;20939;-69
2023/10/26 12:07:45;;;;;;;4.68;1.10;;;15.60;1.00;;;;;;5011209;28;20417;-69
2023/10/26 12:10:11;;;;;;;5.13;1.65;;;15.70;1.00;;;;;;5012978;28;20389;-69
2023/10/26 12:12:37;;;;;;;5.60;1.70;;;15.50;1.00;;;;;;5013235;28;20439;-69
2023/10/26 12:15:04;;;;;;;4.70;1.40;;;15.50;1.00;;;;;;5013847;28;20393;-69
2023/10/26 12:17:29;;;;;;;6.30;1.80;;;15.70;1.00;;;;;;5013183;28;20392;-69
2023/10/26 12:19:55;;;;;;;7.53;2.00;;;15.90;1.00;;;;;;5013031;28;20425;-70
2023/10/26 12:22:22;;;;;;;6.30;1.60;;;16.00;1.00;;;;;;5012807;28;20415;-70
2023/10/26 12:24:47;;;;;;;5.10;1.50;;;16.30;1.00;;;;;;5012402;28;20495;-69
2023/10/26 12:27:16;;;;;;;5.00;1.40;;;16.20;1.00;;;;;;5012827;28;20516;-69
2023/10/26 12:29:43;;;;;;;5.45;1.45;;;16.20;1.00;;;;;;5012770;28;20424;-69
2023/10/26 12:32:09;;;;;;;5.70;1.10;;;16.00;1.00;;;;;;5012559;28;20410;-69
2023/10/26 12:34:34;;;;;;;4.93;1.05;;;15.80;1.00;;;;;;5011276;28;20463;-69
2023/10/26 12:37:00;;;;;;;4.40;1.08;;;15.80;1.00;;;;;;5013158;28;20450;-69
2023/10/26 12:39:26;;;;;;;4.40;0.90;;;15.90;1.00;;;;;;5012378;28;20392;-69
2023/10/26 12:41:52;;;;;;;4.50;1.00;;;15.90;1.00;;;;;;5011425;28;20384;-70
2023/10/26 12:44:20;;;;;;;4.50;1.30;;;16.00;1.00;;;;;;5012522;28;20408;-69
2023/10/26 12:46:48;;;;;;;4.10;0.85;;;16.10;1.00;;;;;;5010991;28;20431;-70
2023/10/26 12:49:13;;;;;;;4.35;0.95;;;16.20;1.00;;;;;;5012318;28;20389;-70
2023/10/26 12:51:39;;;;;;;4.70;1.10;;;16.20;1.00;;;;;;5012490;28;20910;-70
2023/10/26 12:54:05;;;;;;;5.07;1.10;;;16.20;1.00;;;;;;5027107;28;20429;-70
2023/10/26 12:56:30;;;;;;;9.33;1.33;;;16.20;1.00;;;;;;5012963;28;20415;-70